createdAt,value
2018-04-01T00:02:10.482Z,8.40
2018-04-01T00:04:37.113Z,10.23
2018-04-01T00:07:03.514Z,10.10
2018-04-01T00:09:29.603Z,9.75
2018-04-01T00:11:55.628Z,9.52
2018-04-01T00:14:21.666Z,9.40
2018-04-01T00:16:47.674Z,10.07
2018-04-01T00:19:13.682Z,9.65
2018-04-01T00:21:39.735Z,9.43
2018-04-01T00:24:05.816Z,10.95
2018-04-01T00:26:31.862Z,10.93
2018-04-01T00:28:57.903Z,9.32
2018-04-01T00:31:23.921Z,10.00
2018-04-01T00:33:49.930Z,8.80
2018-04-01T00:36:15.958Z,9.82
2018-04-01T00:38:41.968Z,10.90
2018-04-01T00:41:08.009Z,11.57
2018-04-01T00:43:34.098Z,11.35
2018-04-01T00:46:00.096Z,12.00
2018-04-01T00:48:26.105Z,12.10
2018-04-01T00:50:52.127Z,11.63
2018-04-01T00:53:18.164Z,12.57
2018-04-01T00:55:44.174Z,11.65
2018-04-01T00:58:10.222Z,11.23
2018-04-01T01:00:36.249Z,10.85
2018-04-01T01:03:02.632Z,11.43
2018-04-01T01:05:28.682Z,12.02
2018-04-01T01:07:55.077Z,12.77
2018-04-01T01:10:21.096Z,12.25
2018-04-01T01:12:47.123Z,11.45
2018-04-01T01:15:13.114Z,11.68
2018-04-01T01:17:39.467Z,13.38
2018-04-01T01:20:05.500Z,12.85
2018-04-01T01:22:31.512Z,13.40
2018-04-01T01:24:57.509Z,14.13
2018-04-01T01:27:23.553Z,12.88
2018-04-01T01:29:49.625Z,14.05
2018-04-01T01:32:15.634Z,14.10
2018-04-01T01:34:41.662Z,12.93
2018-04-01T01:37:07.692Z,13.52
2018-04-01T01:39:33.720Z,13.60
2018-04-01T01:41:59.732Z,12.43
2018-04-01T01:44:25.757Z,13.68
2018-04-01T01:46:51.788Z,13.20
2018-04-01T01:49:17.816Z,13.90
2018-04-01T01:51:43.877Z,16.10
2018-04-01T01:54:09.946Z,16.05
2018-04-01T01:56:35.984Z,13.98
2018-04-01T01:59:02.076Z,13.98
2018-04-01T02:01:28.095Z,14.15
2018-04-01T02:03:54.166Z,15.00
2018-04-01T02:06:20.182Z,13.65
2018-04-01T02:08:46.222Z,16.23
2018-04-01T02:11:12.290Z,14.73
2018-04-01T02:13:38.300Z,15.20
2018-04-01T02:16:04.302Z,14.87
2018-04-01T02:18:30.718Z,13.55
2018-04-01T02:20:56.744Z,14.80
2018-04-01T02:23:23.159Z,15.82
2018-04-01T02:25:49.188Z,15.23
2018-04-01T02:28:15.190Z,15.02
2018-04-01T02:30:41.926Z,14.82
2018-04-01T02:33:07.950Z,14.98
2018-04-01T02:35:33.994Z,14.27
2018-04-01T02:38:00.003Z,14.15
2018-04-01T02:40:26.025Z,14.73
2018-04-01T02:42:52.071Z,14.50
2018-04-01T02:45:18.104Z,13.48
2018-04-01T02:47:44.137Z,15.20
2018-04-01T02:50:10.179Z,12.93
2018-04-01T02:52:36.190Z,13.10
2018-04-01T02:55:02.223Z,13.35
2018-04-01T02:57:28.262Z,13.85
2018-04-01T02:59:54.303Z,12.60
2018-04-01T03:02:20.314Z,13.05
2018-04-01T03:04:46.373Z,14.55
2018-04-01T03:07:12.367Z,14.52
2018-04-01T03:09:38.383Z,13.50
2018-04-01T03:12:04.452Z,14.07
2018-04-01T03:14:30.490Z,14.70
2018-04-01T03:16:56.902Z,13.60
2018-04-01T03:19:22.937Z,13.23
2018-04-01T03:21:48.983Z,12.30
2018-04-01T03:24:15.357Z,12.13
2018-04-01T03:26:41.401Z,12.27
2018-04-01T03:29:07.410Z,12.37
2018-04-01T03:31:33.436Z,10.70
2018-04-01T03:33:59.500Z,11.85
2018-04-01T03:36:25.877Z,13.88
2018-04-01T03:38:51.924Z,11.98
2018-04-01T03:41:17.962Z,13.35
2018-04-01T03:43:43.954Z,13.75
2018-04-01T03:46:09.977Z,14.57
2018-04-01T03:48:36.009Z,15.10
2018-04-01T03:51:02.013Z,15.43
2018-04-01T03:53:28.033Z,16.12
2018-04-01T03:55:54.069Z,15.40
2018-04-01T03:58:20.113Z,13.93
2018-04-01T04:00:46.120Z,15.20
2018-04-01T04:03:12.160Z,15.15
2018-04-01T04:05:38.212Z,13.77
2018-04-01T04:08:04.621Z,17.87
2018-04-01T04:10:30.678Z,19.50
2018-04-01T04:12:56.699Z,16.87
2018-04-01T04:15:22.772Z,15.35
2018-04-01T04:17:49.312Z,15.30
2018-04-01T04:20:15.313Z,15.10
2018-04-01T04:22:41.340Z,15.07
2018-04-01T04:25:07.353Z,14.45
2018-04-01T04:27:33.404Z,15.73
2018-04-01T04:29:59.458Z,16.45
2018-04-01T04:32:26.838Z,17.00
2018-04-01T04:34:52.841Z,14.38
2018-04-01T04:37:18.859Z,15.43
2018-04-01T04:39:44.907Z,14.90
2018-04-01T04:42:10.933Z,13.75
2018-04-01T04:44:36.954Z,17.87
2018-04-01T04:47:02.960Z,17.25
2018-04-01T04:49:28.965Z,16.00
2018-04-01T04:51:54.989Z,15.55
2018-04-01T04:54:21.017Z,15.75
2018-04-01T04:56:47.077Z,14.68
2018-04-01T04:59:13.098Z,17.60
2018-04-01T05:01:39.117Z,15.98
2018-04-01T05:04:05.136Z,15.65
2018-04-01T05:06:31.157Z,15.80
2018-04-01T05:08:57.492Z,17.02
2018-04-01T05:11:23.510Z,16.23
2018-04-01T05:13:49.548Z,15.27
2018-04-01T05:16:15.556Z,17.05
2018-04-01T05:18:41.560Z,14.30
2018-04-01T05:21:07.635Z,14.50
2018-04-01T05:23:33.740Z,14.95
2018-04-01T05:25:59.755Z,14.20
2018-04-01T05:28:25.831Z,22.73
2018-04-01T05:30:51.906Z,15.27
2018-04-01T05:33:18.020Z,14.75
2018-04-01T05:35:44.491Z,15.23
2018-04-01T05:38:10.547Z,15.73
2018-04-01T05:40:36.610Z,16.33
2018-04-01T05:43:02.717Z,17.23
2018-04-01T05:45:28.733Z,15.68
2018-04-01T05:47:54.716Z,16.27
2018-04-01T05:50:20.752Z,16.37
2018-04-01T05:52:46.749Z,18.92
2018-04-01T05:55:12.845Z,15.02
2018-04-01T05:57:39.068Z,17.87
2018-04-01T06:00:05.471Z,19.17
2018-04-01T06:02:31.476Z,17.60
2018-04-01T06:04:57.500Z,17.33
2018-04-01T06:07:23.544Z,16.23
2018-04-01T06:09:49.577Z,16.87
2018-04-01T06:12:15.638Z,18.33
2018-04-01T06:14:41.645Z,17.10
2018-04-01T06:17:07.665Z,17.85
2018-04-01T06:19:34.541Z,19.02
2018-04-01T06:22:00.541Z,17.45
2018-04-01T06:24:26.583Z,18.42
2018-04-01T06:26:52.628Z,16.50
2018-04-01T06:29:18.666Z,17.00
2018-04-01T06:31:44.687Z,16.60
2018-04-01T06:34:10.743Z,15.35
2018-04-01T06:36:37.139Z,15.55
2018-04-01T06:39:03.171Z,16.30
2018-04-01T06:41:29.196Z,15.45
2018-04-01T06:43:55.222Z,15.65
2018-04-01T06:46:21.245Z,15.50
2018-04-01T06:48:47.299Z,17.35
2018-04-01T06:51:14.694Z,15.82
2018-04-01T06:53:40.736Z,17.65
2018-04-01T06:56:07.418Z,86.87
2018-04-01T06:58:33.878Z,19.48
2018-04-01T07:00:59.881Z,32.20
2018-04-01T07:03:25.903Z,78.85
2018-04-01T07:05:52.308Z,88.30
2018-04-01T07:08:18.324Z,87.72
2018-04-01T07:10:44.358Z,82.88
2018-04-01T07:13:10.756Z,83.22
2018-04-01T07:15:36.762Z,77.55
2018-04-01T07:18:02.808Z,106.35
2018-04-01T07:20:28.836Z,124.38
2018-04-01T07:22:54.883Z,20.77
2018-04-01T07:25:21.254Z,28.33
2018-04-01T07:27:49.356Z,27.05
2018-04-01T07:30:15.398Z,16.58
2018-04-01T07:32:41.404Z,12.00
2018-04-01T07:35:07.456Z,10.13
2018-04-01T07:37:33.942Z,10.15
2018-04-01T07:39:59.968Z,10.02
2018-04-01T07:42:26.047Z,9.82
2018-04-01T07:44:52.431Z,10.57
2018-04-01T07:47:18.474Z,10.30
2018-04-01T07:49:44.525Z,8.82
2018-04-01T07:52:10.933Z,8.40
2018-04-01T07:54:36.954Z,7.82
2018-04-01T07:57:02.977Z,7.85
2018-04-01T07:59:29.163Z,7.22
2018-04-01T08:01:55.189Z,8.35
2018-04-01T08:04:21.234Z,8.70
2018-04-01T08:06:47.231Z,8.18
2018-04-01T08:09:13.613Z,8.48
2018-04-01T08:11:39.692Z,7.53
2018-04-01T08:14:05.720Z,7.15
2018-04-01T08:16:31.769Z,7.82
2018-04-01T08:18:57.800Z,5.78
2018-04-01T08:21:23.850Z,6.18
2018-04-01T08:23:49.909Z,5.28
2018-04-01T08:26:15.948Z,6.47
2018-04-01T08:28:41.990Z,6.78
2018-04-01T08:31:09.277Z,6.95
2018-04-01T08:33:35.662Z,6.65
2018-04-01T08:36:01.742Z,4.70
2018-04-01T08:38:28.124Z,5.70
2018-04-01T08:40:54.185Z,3.22
2018-04-01T08:43:20.594Z,2.78
2018-04-01T08:45:46.635Z,4.05
2018-04-01T08:48:13.081Z,3.75
2018-04-01T08:50:39.476Z,3.30
2018-04-01T08:53:05.577Z,4.80
2018-04-01T08:55:31.575Z,4.45
2018-04-01T08:57:57.611Z,4.62
2018-04-01T09:00:23.682Z,3.90
2018-04-01T09:02:49.795Z,3.42
2018-04-01T09:05:15.835Z,3.25
2018-04-01T09:07:41.824Z,2.30
2018-04-01T09:10:07.891Z,2.90
2018-04-01T09:12:34.315Z,2.80
2018-04-01T09:15:00.388Z,2.80
2018-04-01T09:17:26.411Z,2.80
2018-04-01T09:19:52.445Z,2.55
2018-04-01T09:22:18.493Z,2.70
2018-04-01T09:24:44.606Z,2.95
2018-04-01T09:27:10.650Z,2.75
2018-04-01T09:29:38.092Z,2.72
2018-04-01T09:32:04.126Z,2.70
2018-04-01T09:34:30.142Z,2.95
2018-04-01T09:36:56.202Z,3.25
2018-04-01T09:39:22.610Z,2.40
2018-04-01T09:41:48.626Z,3.25
2018-04-01T09:44:14.695Z,3.10
2018-04-01T09:46:40.765Z,2.70
2018-04-01T09:49:06.779Z,3.40
2018-04-01T09:51:33.406Z,3.05
2018-04-01T09:53:59.428Z,2.75
2018-04-01T09:56:25.443Z,3.00
2018-04-01T09:58:51.500Z,4.10
2018-04-01T10:01:17.772Z,3.45
2018-04-01T10:03:44.368Z,2.90
2018-04-01T10:06:10.674Z,5.47
2018-04-01T10:08:36.952Z,3.00
2018-04-01T10:11:03.573Z,3.80
2018-04-01T10:13:29.836Z,3.58
2018-04-01T10:15:56.622Z,3.60
2018-04-01T10:18:22.861Z,3.90
2018-04-01T10:20:49.111Z,3.60
2018-04-01T10:23:15.329Z,4.18
2018-04-01T10:25:41.527Z,4.90
2018-04-01T10:28:07.758Z,5.00
2018-04-01T10:30:34.084Z,3.72
2018-04-01T10:33:00.283Z,4.90
2018-04-01T10:35:26.508Z,3.35
2018-04-01T10:37:52.703Z,4.70
2018-04-01T10:40:18.955Z,3.40
2018-04-01T10:42:45.244Z,2.97
2018-04-01T10:45:11.489Z,4.15
2018-04-01T10:47:37.748Z,6.05
2018-04-01T10:50:04.355Z,4.05
2018-04-01T10:52:30.556Z,2.30
2018-04-01T10:54:56.982Z,2.20
2018-04-01T10:57:23.055Z,1.62
2018-04-01T10:59:49.077Z,1.60
2018-04-01T11:02:15.131Z,1.00
2018-04-01T11:04:41.746Z,1.05
2018-04-01T11:07:08.148Z,1.80
2018-04-01T11:09:34.164Z,1.85
2018-04-01T11:12:00.210Z,0.88
2018-04-01T11:14:26.269Z,0.85
2018-04-01T11:16:52.293Z,1.00
2018-04-01T11:19:18.357Z,1.10
2018-04-01T11:21:44.371Z,1.08
2018-04-01T11:24:11.313Z,1.20
2018-04-01T11:26:37.414Z,2.05
2018-04-01T11:29:03.423Z,1.27
2018-04-01T11:31:29.793Z,1.05
2018-04-01T11:33:55.874Z,1.17
2018-04-01T11:36:22.269Z,1.33
2018-04-01T11:38:48.285Z,1.00
2018-04-01T11:41:14.471Z,0.90
2018-04-01T11:43:40.742Z,1.10
2018-04-01T11:46:06.758Z,1.60
2018-04-01T11:48:32.799Z,1.60
2018-04-01T11:50:58.884Z,1.73
2018-04-01T11:53:25.298Z,1.60
2018-04-01T11:55:51.373Z,1.80
2018-04-01T11:58:17.432Z,2.13
2018-04-01T12:00:43.844Z,1.80
2018-04-01T12:03:09.914Z,2.10
2018-04-01T12:05:35.924Z,2.20
2018-04-01T12:08:02.626Z,1.93
2018-04-01T12:10:28.647Z,2.55
2018-04-01T12:12:54.674Z,2.00
2018-04-01T12:15:20.734Z,1.80
2018-04-01T12:17:46.749Z,1.90
2018-04-01T12:20:13.742Z,1.90
2018-04-01T12:22:39.797Z,1.80
2018-04-01T12:25:05.827Z,1.73
2018-04-01T12:27:31.838Z,1.45
2018-04-01T12:29:58.054Z,2.95
2018-04-01T12:32:24.152Z,1.45
2018-04-01T12:34:50.180Z,1.73
2018-04-01T12:37:16.245Z,1.45
2018-04-01T12:39:42.270Z,1.50
2018-04-01T12:42:08.354Z,1.62
2018-04-01T12:44:34.416Z,0.90
2018-04-01T12:47:00.418Z,0.90
2018-04-01T12:49:26.454Z,1.92
2018-04-01T12:51:52.477Z,2.70
2018-04-01T12:54:19.538Z,4.82
2018-04-01T12:56:45.559Z,4.05
2018-04-01T12:59:11.645Z,1.90
2018-04-01T13:01:37.671Z,2.47
2018-04-01T13:04:03.754Z,3.47
2018-04-01T13:06:29.815Z,3.70
2018-04-01T13:08:55.863Z,3.70
2018-04-01T13:11:21.917Z,3.22
2018-04-01T13:13:48.359Z,3.33
2018-04-01T13:16:14.752Z,2.90
2018-04-01T13:18:40.766Z,3.05
2018-04-01T13:21:06.825Z,2.70
2018-04-01T13:23:33.237Z,2.60
2018-04-01T13:25:59.273Z,2.67
2018-04-01T13:28:25.348Z,2.53
2018-04-01T13:30:51.379Z,2.65
2018-04-01T13:33:17.393Z,2.47
2018-04-01T13:35:43.440Z,3.00
2018-04-01T13:38:09.501Z,2.75
2018-04-01T13:40:35.546Z,2.83
2018-04-01T13:43:01.588Z,2.60
2018-04-01T13:45:27.609Z,2.72
2018-04-01T13:47:53.637Z,3.58
2018-04-01T13:50:19.739Z,2.75
2018-04-01T13:52:45.801Z,3.15
2018-04-01T13:55:11.845Z,4.00
2018-04-01T13:57:38.571Z,3.58
2018-04-01T14:00:04.652Z,3.62
2018-04-01T14:02:30.682Z,3.35
2018-04-01T14:04:56.782Z,2.62
2018-04-01T14:07:22.816Z,3.33
2018-04-01T14:09:48.846Z,2.90
2018-04-01T14:12:14.904Z,3.40
2018-04-01T14:14:40.962Z,2.95
2018-04-01T14:17:06.982Z,3.47
2018-04-01T14:19:33.022Z,3.12
2018-04-01T14:22:00.413Z,3.53
2018-04-01T14:24:26.466Z,3.75
2018-04-01T14:26:53.514Z,3.97
2018-04-01T14:29:19.545Z,2.85
2018-04-01T14:31:45.643Z,3.25
2018-04-01T14:34:11.709Z,3.35
2018-04-01T14:36:37.769Z,3.62
2018-04-01T14:39:03.792Z,4.20
2018-04-01T14:41:29.901Z,3.95
2018-04-01T14:43:55.971Z,3.70
2018-04-01T14:46:22.013Z,8.10
2018-04-01T14:48:48.066Z,3.50
2018-04-01T14:51:14.113Z,3.03
2018-04-01T14:53:40.161Z,3.85
2018-04-01T14:56:06.203Z,3.70
2018-04-01T14:58:32.254Z,4.57
2018-04-01T15:00:58.677Z,3.87
2018-04-01T15:03:24.760Z,4.40
2018-04-01T15:05:50.831Z,4.57
2018-04-01T15:08:16.848Z,4.20
2018-04-01T15:10:42.875Z,4.50
2018-04-01T15:13:08.942Z,4.82
2018-04-01T15:15:35.829Z,4.57
2018-04-01T15:18:01.860Z,4.57
2018-04-01T15:20:27.875Z,4.53
2018-04-01T15:22:53.905Z,4.50
2018-04-01T15:25:19.949Z,3.90
2018-04-01T15:27:46.346Z,4.75
2018-04-01T15:30:12.408Z,5.15
2018-04-01T15:32:38.821Z,4.45
2018-04-01T15:35:04.869Z,4.60
2018-04-01T15:37:31.265Z,4.32
2018-04-01T15:39:58.045Z,4.50
2018-04-01T15:42:24.124Z,3.40
2018-04-01T15:44:50.162Z,3.75
2018-04-01T15:47:16.204Z,3.62
2018-04-01T15:49:42.606Z,3.67
2018-04-01T15:52:08.693Z,4.18
2018-04-01T15:54:34.727Z,4.50
2018-04-01T15:57:00.771Z,4.07
2018-04-01T15:59:26.794Z,3.28
2018-04-01T16:01:52.828Z,4.07
2018-04-01T16:04:18.932Z,3.95
2018-04-01T16:06:44.988Z,3.80
2018-04-01T16:09:11.057Z,5.47
2018-04-01T16:11:37.110Z,3.95
2018-04-01T16:14:03.158Z,4.32
2018-04-01T16:16:29.210Z,4.12
2018-04-01T16:18:55.276Z,3.72
2018-04-01T16:21:21.317Z,4.65
2018-04-01T16:23:47.336Z,4.43
2018-04-01T16:26:13.414Z,4.22
2018-04-01T16:28:39.432Z,4.60
2018-04-01T16:31:05.497Z,4.60
2018-04-01T16:33:31.562Z,4.00
2018-04-01T16:35:57.637Z,4.80
2018-04-01T16:38:23.689Z,4.80
2018-04-01T16:40:49.769Z,4.90
2018-04-01T16:43:15.808Z,4.20
2018-04-01T16:45:41.904Z,3.92
2018-04-01T16:48:07.940Z,4.12
2018-04-01T16:50:33.967Z,3.30
2018-04-01T16:53:00.059Z,3.90
2018-04-01T16:55:26.487Z,4.20
2018-04-01T16:57:52.950Z,3.60
2018-04-01T17:00:18.970Z,4.07
2018-04-01T17:02:45.039Z,4.10
2018-04-01T17:05:11.083Z,4.53
2018-04-01T17:07:37.205Z,4.10
2018-04-01T17:10:03.249Z,4.30
2018-04-01T17:12:29.642Z,4.30
2018-04-01T17:14:55.725Z,4.53
2018-04-01T17:17:21.741Z,5.03
2018-04-01T17:19:47.806Z,5.03
2018-04-01T17:22:13.856Z,3.58
2018-04-01T17:24:39.883Z,4.12
2018-04-01T17:27:06.307Z,4.70
2018-04-01T17:29:32.332Z,4.40
2018-04-01T17:31:58.389Z,5.15
2018-04-01T17:34:24.465Z,4.22
2018-04-01T17:36:50.546Z,4.53
2018-04-01T17:39:16.596Z,4.87
2018-04-01T17:41:42.657Z,5.22
2018-04-01T17:44:08.727Z,5.68
2018-04-01T17:46:34.765Z,4.50
2018-04-01T17:49:00.791Z,4.95
2018-04-01T17:51:26.832Z,5.18
2018-04-01T17:53:52.866Z,5.53
2018-04-01T17:56:18.900Z,4.35
2018-04-01T17:58:45.013Z,4.80
2018-04-01T18:01:11.096Z,6.85
2018-04-01T18:03:37.199Z,5.20
2018-04-01T18:06:03.597Z,4.72
2018-04-01T18:08:29.720Z,5.68
2018-04-01T18:10:55.758Z,5.97
2018-04-01T18:13:22.146Z,5.70
2018-04-01T18:15:48.239Z,6.40
2018-04-01T18:18:14.343Z,5.15
2018-04-01T18:20:40.736Z,5.75
2018-04-01T18:23:06.829Z,5.32
2018-04-01T18:25:32.843Z,5.28
2018-04-01T18:27:59.208Z,4.85
2018-04-01T18:30:26.160Z,6.40
2018-04-01T18:32:52.184Z,5.37
2018-04-01T18:35:18.218Z,6.25
2018-04-01T18:37:44.239Z,5.20
2018-04-01T18:40:10.593Z,7.55
2018-04-01T18:42:36.621Z,6.20
2018-04-01T18:45:02.674Z,6.30
2018-04-01T18:47:28.718Z,6.07
2018-04-01T18:49:54.758Z,5.90
2018-04-01T18:52:20.850Z,5.93
2018-04-01T18:54:46.925Z,5.43
2018-04-01T18:57:12.924Z,6.28
2018-04-01T18:59:39.048Z,8.90
2018-04-01T19:02:06.828Z,6.03
2018-04-01T19:04:32.863Z,5.55
2018-04-01T19:06:58.919Z,6.47
2018-04-01T19:09:24.983Z,5.90
2018-04-01T19:11:51.090Z,6.03
2018-04-01T19:14:17.663Z,6.40
2018-04-01T19:16:56.194Z,6.00
2018-04-01T19:19:22.473Z,5.93
2018-04-01T19:21:48.734Z,5.82
2018-04-01T19:24:15.965Z,10.73
2018-04-01T19:26:42.231Z,7.50
2018-04-01T19:29:08.512Z,7.22
2018-04-01T19:31:34.796Z,6.15
2018-04-01T19:34:01.053Z,6.50
2018-04-01T19:36:27.297Z,6.15
2018-04-01T19:38:53.549Z,6.40
2018-04-01T19:41:19.832Z,7.57
2018-04-01T19:43:46.928Z,6.90
2018-04-01T19:46:13.198Z,6.90
2018-04-01T19:48:39.458Z,6.18
2018-04-01T19:51:05.676Z,6.55
2018-04-01T19:53:31.951Z,6.35
2018-04-01T19:55:58.252Z,6.97
2018-04-01T19:58:24.498Z,6.65
2018-04-01T20:00:50.752Z,6.30
2018-04-01T20:03:17.040Z,6.50
2018-04-01T20:05:43.508Z,6.28
2018-04-01T20:08:09.743Z,10.90
2018-04-01T20:10:36.032Z,8.40
2018-04-01T20:13:02.274Z,6.95
2018-04-01T20:15:28.546Z,6.93
2018-04-01T20:17:55.141Z,7.60
2018-04-01T20:20:21.391Z,6.82
2018-04-01T20:22:47.754Z,7.07
2018-04-01T20:25:13.965Z,9.63
2018-04-01T20:27:40.174Z,7.20
2018-04-01T20:30:06.443Z,8.57
2018-04-01T20:32:33.088Z,10.95
2018-04-01T20:34:59.316Z,8.20
2018-04-01T20:37:25.562Z,6.78
2018-04-01T20:39:51.853Z,7.87
2018-04-01T20:42:18.573Z,8.57
2018-04-01T20:44:44.836Z,7.57
2018-04-01T20:47:11.079Z,8.20
2018-04-01T20:49:37.333Z,7.20
2018-04-01T20:52:03.594Z,8.43
2018-04-01T20:54:29.862Z,10.85
2018-04-01T20:56:56.094Z,8.07
2018-04-01T20:59:22.434Z,8.05
2018-04-01T21:01:48.760Z,12.35
2018-04-01T21:04:15.093Z,8.00
2018-04-01T21:06:41.499Z,9.15
2018-04-01T21:09:07.822Z,9.27
2018-04-01T21:11:34.535Z,8.60
2018-04-01T21:14:00.822Z,8.05
2018-04-01T21:16:27.108Z,9.43
2018-04-01T21:18:53.372Z,8.15
2018-04-01T21:21:19.800Z,8.10
2018-04-01T21:23:46.624Z,7.50
2018-04-01T21:26:13.216Z,7.18
2018-04-01T21:28:39.470Z,8.55
2018-04-01T21:31:06.223Z,8.02
2018-04-01T21:33:32.506Z,8.60
2018-04-01T21:35:58.757Z,8.75
2018-04-01T21:38:25.920Z,8.50
2018-04-01T21:40:52.200Z,8.38
2018-04-01T21:43:18.448Z,8.05
2018-04-01T21:45:44.711Z,9.38
2018-04-01T21:48:10.985Z,8.75
2018-04-01T21:50:37.371Z,9.43
2018-04-01T21:53:03.591Z,8.07
2018-04-01T21:55:29.861Z,9.55
2018-04-01T21:57:56.126Z,8.35
2018-04-01T22:00:22.368Z,9.02
2018-04-01T22:02:48.651Z,10.43
2018-04-01T22:05:14.863Z,8.60
2018-04-01T22:07:41.559Z,8.52
2018-04-01T22:10:07.814Z,9.43
2018-04-01T22:12:34.064Z,7.68
2018-04-01T22:15:00.332Z,10.20
2018-04-01T22:17:26.566Z,8.60
2018-04-01T22:19:52.832Z,9.18
2018-04-01T22:22:19.422Z,8.20
2018-04-01T22:24:46.169Z,7.60
2018-04-01T22:27:12.480Z,7.87
2018-04-01T22:29:38.718Z,7.00
2018-04-01T22:32:05.003Z,7.12
2018-04-01T22:34:31.607Z,7.45
2018-04-01T22:36:57.886Z,8.15
2018-04-01T22:39:24.111Z,7.50
2018-04-01T22:41:50.314Z,8.10
2018-04-01T22:44:16.890Z,7.32
2018-04-01T22:46:43.168Z,7.90
2018-04-01T22:49:09.388Z,7.35
2018-04-01T22:51:35.614Z,6.93
2018-04-01T22:54:01.848Z,6.95
2018-04-01T22:56:28.067Z,7.68
2018-04-01T22:58:54.297Z,7.20
2018-04-01T23:01:20.562Z,8.32
2018-04-01T23:03:47.158Z,7.03
2018-04-01T23:06:13.390Z,7.80
2018-04-01T23:08:39.647Z,7.25
2018-04-01T23:11:06.270Z,7.60
2018-04-01T23:13:32.891Z,8.32
2018-04-01T23:16:00.003Z,8.18
2018-04-01T23:18:26.263Z,6.97
2018-04-01T23:20:52.527Z,8.20
2018-04-01T23:23:18.821Z,7.03
2018-04-01T23:25:45.045Z,7.28
2018-04-01T23:28:11.295Z,7.62
2018-04-01T23:30:37.538Z,7.55
2018-04-01T23:33:04.126Z,6.75
2018-04-01T23:35:30.329Z,7.35
2018-04-01T23:37:56.560Z,7.62
2018-04-01T23:40:22.785Z,8.57
2018-04-01T23:42:48.977Z,6.95
2018-04-01T23:45:15.216Z,8.65
2018-04-01T23:47:41.450Z,7.05
2018-04-01T23:50:08.061Z,8.10
2018-04-01T23:52:34.329Z,8.75
2018-04-01T23:55:01.353Z,8.32
2018-04-01T23:57:27.558Z,7.50
2018-04-01T23:59:53.797Z,9.00
